sensor_id;sensor_type;location;lat;lon;timestamp;pressure;altitude;pressure_sealevel;temperature
26158;BMP280;67284;44.782;10.282;2024-01-15T00:01:04;100024.88;;;6.44
26158;BMP280;67284;44.782;10.282;2024-01-15T00:05:56;100023.22;;;6.34
26158;BMP280;67284;44.782;10.282;2024-01-15T00:10:48;100004.44;;;6.38
26158;BMP280;67284;44.782;10.282;2024-01-15T00:15:40;100005.31;;;6.37
26158;BMP280;67284;44.782;10.282;2024-01-15T00:20:32;100008.75;;;6.33
26158;BMP280;67284;44.782;10.282;2024-01-15T00:25:24;99997.69;;;6.33
26158;BMP280;67284;44.782;10.282;2024-01-15T00:30:16;99981.50;;;6.29
26158;BMP280;67284;44.782;10.282;2024-01-15T00:35:08;99976.44;;;6.18
26158;BMP280;67284;44.782;10.282;2024-01-15T00:40:00;99979.88;;;6.11
26158;BMP280;67284;44.782;10.282;2024-01-15T00:44:52;99967.97;;;6.08
26158;BMP280;67284;44.782;10.282;2024-01-15T00:49:45;99956.06;;;6.04
26158;BMP280;67284;44.782;10.282;2024-01-15T00:54:37;99956.03;;;6.09
26158;BMP280;67284;44.782;10.282;2024-01-15T00:59:29;99952.66;;;6.04
26158;BMP280;67284;44.782;10.282;2024-01-15T01:04:21;99955.19;;;6.07
26158;BMP280;67284;44.782;10.282;2024-01-15T01:09:13;99951.75;;;6.08
26158;BMP280;67284;44.782;10.282;2024-01-15T01:14:05;99951.78;;;6.02
26158;BMP280;67284;44.782;10.282;2024-01-15T01:18:57;99943.31;;;5.98
26158;BMP280;67284;44.782;10.282;2024-01-15T01:23:49;99944.13;;;6.05
26158;BMP280;67284;44.782;10.282;2024-01-15T01:28:41;99955.19;;;6.07
26158;BMP280;67284;44.782;10.282;2024-01-15T01:33:33;99950.91;;;6.13
26158;BMP280;67284;44.782;10.282;2024-01-15T01:38:25;99939.00;;;6.14
26158;BMP280;67284;44.782;10.282;2024-01-15T01:43:16;99932.22;;;6.07
26158;BMP280;67284;44.782;10.282;2024-01-15T01:48:09;99927.94;;;6.10
26158;BMP280;67284;44.782;10.282;2024-01-15T01:53:02;99920.28;;;6.09
26158;BMP280;67284;44.782;10.282;2024-01-15T01:57:56;99915.97;;;6.20
26158;BMP280;67284;44.782;10.282;2024-01-15T02:02:48;99910.88;;;6.20
26158;BMP280;67284;44.782;10.282;2024-01-15T02:07:40;99919.34;;;6.27
26158;BMP280;67284;44.782;10.282;2024-01-15T02:12:32;99921.03;;;6.28
26158;BMP280;67284;44.782;10.282;2024-01-15T02:17:24;99915.09;;;6.26
26158;BMP280;67284;44.782;10.282;2024-01-15T02:22:16;99898.03;;;6.30
26158;BMP280;67284;44.782;10.282;2024-01-15T02:27:09;99893.75;;;6.36
26158;BMP280;67284;44.782;10.282;2024-01-15T02:32:04;99886.97;;;6.29
26158;BMP280;67284;44.782;10.282;2024-01-15T02:36:56;99878.50;;;6.19
26158;BMP280;67284;44.782;10.282;2024-01-15T02:41:48;99876.81;;;6.13
26158;BMP280;67284;44.782;10.282;2024-01-15T02:46:40;99901.56;;;6.01
26158;BMP280;67284;44.782;10.282;2024-01-15T02:51:31;99879.47;;;5.98
26158;BMP280;67284;44.782;10.282;2024-01-15T02:56:23;99870.06;;;6.05
26158;BMP280;67284;44.782;10.282;2024-01-15T03:01:18;99850.50;;;6.07
26158;BMP280;67284;44.782;10.282;2024-01-15T03:06:10;99836.00;;;6.06
26158;BMP280;67284;44.782;10.282;2024-01-15T03:11:03;99829.19;;;6.09
26158;BMP280;67284;44.782;10.282;2024-01-15T03:15:55;99819.78;;;6.14
26158;BMP280;67284;44.782;10.282;2024-01-15T03:20:46;99820.66;;;6.09
26158;BMP280;67284;44.782;10.282;2024-01-15T03:25:38;99817.25;;;6.11
26158;BMP280;67284;44.782;10.282;2024-01-15T03:30:30;99823.28;;;5.98
26158;BMP280;67284;44.782;10.282;2024-01-15T03:35:22;99813.88;;;6.05
26158;BMP280;67284;44.782;10.282;2024-01-15T03:40:14;99796.09;;;5.93
26158;BMP280;67284;44.782;10.282;2024-01-15T03:45:08;99785.03;;;5.91
26158;BMP280;67284;44.782;10.282;2024-01-15T03:50:00;99786.81;;;5.80
26158;BMP280;67284;44.782;10.282;2024-01-15T03:54:52;99774.91;;;5.73
26158;BMP280;67284;44.782;10.282;2024-01-15T03:59:44;99781.66;;;5.84
26158;BMP280;67284;44.782;10.282;2024-01-15T04:04:43;99785.06;;;5.85
26158;BMP280;67284;44.782;10.282;2024-01-15T04:09:35;99782.47;;;5.91
26158;BMP280;67284;44.782;10.282;2024-01-15T04:14:27;99774.81;;;5.88
26158;BMP280;67284;44.782;10.282;2024-01-15T04:19:20;99755.28;;;5.82
26158;BMP280;67284;44.782;10.282;2024-01-15T04:24:12;99749.28;;;5.88
26158;BMP280;67284;44.782;10.282;2024-01-15T04:29:04;99744.19;;;5.88
26158;BMP280;67284;44.782;10.282;2024-01-15T04:33:55;99734.84;;;5.88
26158;BMP280;67284;44.782;10.282;2024-01-15T04:38:47;99724.59;;;5.93
26158;BMP280;67284;44.782;10.282;2024-01-15T04:43:40;99725.53;;;5.80
26158;BMP280;67284;44.782;10.282;2024-01-15T04:48:32;99735.78;;;5.65
26158;BMP280;67284;44.782;10.282;2024-01-15T04:53:24;99730.72;;;5.62
26158;BMP280;67284;44.782;10.282;2024-01-15T04:58:16;99751.22;;;5.43
26158;BMP280;67284;44.782;10.282;2024-01-15T05:03:07;99752.94;;;5.42
26158;BMP280;67284;44.782;10.282;2024-01-15T05:07:59;99758.03;;;5.39
26158;BMP280;67284;44.782;10.282;2024-01-15T05:12:52;99767.38;;;5.42
26158;BMP280;67284;44.782;10.282;2024-01-15T05:17:43;99786.97;;;5.29
26158;BMP280;67284;44.782;10.282;2024-01-15T05:22:35;99781.88;;;5.32
26158;BMP280;67284;44.782;10.282;2024-01-15T05:27:27;99778.47;;;5.30
26158;BMP280;67284;44.782;10.282;2024-01-15T05:32:19;99735.88;;;5.47
26158;BMP280;67284;44.782;10.282;2024-01-15T05:37:11;99724.75;;;5.65
26158;BMP280;67284;44.782;10.282;2024-01-15T05:42:04;99702.56;;;5.75
26158;BMP280;67284;44.782;10.282;2024-01-15T05:46:56;99712.81;;;5.67
26158;BMP280;67284;44.782;10.282;2024-01-15T05:51:48;99706.00;;;5.70
26158;BMP280;67284;44.782;10.282;2024-01-15T05:56:40;99717.09;;;5.57
26158;BMP280;67284;44.782;10.282;2024-01-15T06:01:31;99703.50;;;5.58
26158;BMP280;67284;44.782;10.282;2024-01-15T06:06:23;99705.16;;;5.68
26158;BMP280;67284;44.782;10.282;2024-01-15T06:11:15;99711.97;;;5.68
26158;BMP280;67284;44.782;10.282;2024-01-15T06:16:14;99729.81;;;5.70
26158;BMP280;67284;44.782;10.282;2024-01-15T06:21:08;99730.69;;;5.65
26158;BMP280;67284;44.782;10.282;2024-01-15T06:26:02;99715.34;;;5.68
26158;BMP280;67284;44.782;10.282;2024-01-15T06:30:55;99712.81;;;5.68
26158;BMP280;67284;44.782;10.282;2024-01-15T06:35:47;99712.78;;;5.78
26158;BMP280;67284;44.782;10.282;2024-01-15T06:40:39;99718.72;;;5.82
26158;BMP280;67284;44.782;10.282;2024-01-15T06:45:33;99711.94;;;5.72
26158;BMP280;67284;44.782;10.282;2024-01-15T06:50:25;99713.66;;;5.70
26158;BMP280;67284;44.782;10.282;2024-01-15T06:55:17;99694.91;;;5.80
26158;BMP280;67284;44.782;10.282;2024-01-15T07:00:09;99693.16;;;5.85
26158;BMP280;67284;44.782;10.282;2024-01-15T07:05:02;99677.91;;;5.76
26158;BMP280;67284;44.782;10.282;2024-01-15T07:09:56;99682.97;;;5.80
26158;BMP280;67284;44.782;10.282;2024-01-15T07:14:49;99682.16;;;5.75
26158;BMP280;67284;44.782;10.282;2024-01-15T07:19:41;99684.69;;;5.81
26158;BMP280;67284;44.782;10.282;2024-01-15T07:24:33;99697.47;;;5.75
26158;BMP280;67284;44.782;10.282;2024-01-15T07:29:27;99702.59;;;5.78
26158;BMP280;67284;44.782;10.282;2024-01-15T07:34:20;99683.00;;;5.73
26158;BMP280;67284;44.782;10.282;2024-01-15T07:39:13;99694.06;;;5.73
26158;BMP280;67284;44.782;10.282;2024-01-15T07:44:05;99699.19;;;5.69
26158;BMP280;67284;44.782;10.282;2024-01-15T07:48:57;99700.06;;;5.67
26158;BMP280;67284;44.782;10.282;2024-01-15T07:53:52;99696.66;;;5.66
26158;BMP280;67284;44.782;10.282;2024-01-15T07:58:44;99710.28;;;5.62
26158;BMP280;67284;44.782;10.282;2024-01-15T08:03:36;99705.16;;;5.67
26158;BMP280;67284;44.782;10.282;2024-01-15T08:08:28;99706.88;;;5.66
26158;BMP280;67284;44.782;10.282;2024-01-15T08:13:20;99709.38;;;5.72
26158;BMP280;67284;44.782;10.282;2024-01-15T08:18:12;99707.72;;;5.65
26158;BMP280;67284;44.782;10.282;2024-01-15T08:23:04;99720.41;;;5.74
26158;BMP280;67284;44.782;10.282;2024-01-15T08:27:57;99717.88;;;5.72
26158;BMP280;67284;44.782;10.282;2024-01-15T08:32:49;99724.69;;;5.76
26158;BMP280;67284;44.782;10.282;2024-01-15T08:37:41;99730.63;;;5.83
26158;BMP280;67284;44.782;10.282;2024-01-15T08:42:35;99731.41;;;5.91
26158;BMP280;67284;44.782;10.282;2024-01-15T08:47:27;99730.53;;;5.95
26158;BMP280;67284;44.782;10.282;2024-01-15T08:52:19;99733.06;;;5.96
26158;BMP280;67284;44.782;10.282;2024-01-15T08:57:11;99731.41;;;5.94
26158;BMP280;67284;44.782;10.282;2024-01-15T09:02:03;99726.28;;;5.97
26158;BMP280;67284;44.782;10.282;2024-01-15T09:06:55;99724.53;;;6.00
26158;BMP280;67284;44.782;10.282;2024-01-15T09:11:47;99718.59;;;6.01
26158;BMP280;67284;44.782;10.282;2024-01-15T09:16:39;99715.22;;;5.95
26158;BMP280;67284;44.782;10.282;2024-01-15T09:21:31;99721.97;;;6.02
26158;BMP280;67284;44.782;10.282;2024-01-15T09:26:23;99712.63;;;6.04
26158;BMP280;67284;44.782;10.282;2024-01-15T09:31:15;99724.50;;;6.09
26158;BMP280;67284;44.782;10.282;2024-01-15T09:36:09;99726.16;;;6.12
26158;BMP280;67284;44.782;10.282;2024-01-15T09:41:01;99722.75;;;6.13
26158;BMP280;67284;44.782;10.282;2024-01-15T09:45:53;99719.34;;;6.14
26158;BMP280;67284;44.782;10.282;2024-01-15T09:50:46;99710.78;;;6.19
26158;BMP280;67284;44.782;10.282;2024-01-15T10:00:47;99697.00;;;6.36
26158;BMP280;67284;44.782;10.282;2024-01-15T10:05:43;99689.28;;;6.41
26158;BMP280;67284;44.782;10.282;2024-01-15T10:10:36;99673.91;;;6.48
26158;BMP280;67284;44.782;10.282;2024-01-15T10:15:29;99667.81;;;6.61
26158;BMP280;67284;44.782;10.282;2024-01-15T10:20:20;99662.72;;;6.61
26158;BMP280;67284;44.782;10.282;2024-01-15T10:25:15;99654.19;;;6.59
26158;BMP280;67284;44.782;10.282;2024-01-15T10:30:11;99655.88;;;6.62
26158;BMP280;67284;44.782;10.282;2024-01-15T10:35:07;99648.13;;;6.69
26158;BMP280;67284;44.782;10.282;2024-01-15T10:40:03;99630.13;;;6.79
26158;BMP280;67284;44.782;10.282;2024-01-15T10:44:58;99613.94;;;6.79
26158;BMP280;67284;44.782;10.282;2024-01-15T10:49:51;99603.72;;;6.76
26158;BMP280;67284;44.782;10.282;2024-01-15T10:54:45;99601.06;;;6.86
26158;BMP280;67284;44.782;10.282;2024-01-15T10:59:37;99595.94;;;6.86
26158;BMP280;67284;44.782;10.282;2024-01-15T11:04:31;99583.03;;;6.97
26158;BMP280;67284;44.782;10.282;2024-01-15T11:09:24;99577.66;;;7.15
26158;BMP280;67284;44.782;10.282;2024-01-15T11:19:56;99566.09;;;7.47
26158;BMP280;67284;44.782;10.282;2024-01-15T11:24:50;99555.78;;;7.53
26158;BMP280;67284;44.782;10.282;2024-01-15T11:29:42;99541.28;;;7.53
26158;BMP280;67284;44.782;10.282;2024-01-15T11:39:44;99521.53;;;7.60
26158;BMP280;67284;44.782;10.282;2024-01-15T11:44:38;99516.28;;;7.69
26158;BMP280;67284;44.782;10.282;2024-01-15T11:59:44;99475.03;;;7.83
26158;BMP280;67284;44.782;10.282;2024-01-15T12:04:36;99482.72;;;7.82
26158;BMP280;67284;44.782;10.282;2024-01-15T12:09:28;99457.97;;;7.84
26158;BMP280;67284;44.782;10.282;2024-01-15T12:14:21;99459.53;;;7.91
26158;BMP280;67284;44.782;10.282;2024-01-15T12:19:14;99449.28;;;7.92
26158;BMP280;67284;44.782;10.282;2024-01-15T12:24:07;99450.94;;;7.93
26158;BMP280;67284;44.782;10.282;2024-01-15T12:29:02;99433.97;;;7.88
26158;BMP280;67284;44.782;10.282;2024-01-15T12:33:55;99425.41;;;7.89
26158;BMP280;67284;44.782;10.282;2024-01-15T12:38:47;99418.50;;;7.94
26158;BMP280;67284;44.782;10.282;2024-01-15T12:43:39;99419.31;;;7.96
26158;BMP280;67284;44.782;10.282;2024-01-15T12:48:32;99399.69;;;7.95
26158;BMP280;67284;44.782;10.282;2024-01-15T12:53:24;99395.47;;;7.94
26158;BMP280;67284;44.782;10.282;2024-01-15T12:58:16;99377.50;;;7.95
26158;BMP280;67284;44.782;10.282;2024-01-15T13:03:11;99384.22;;;8.01
26158;BMP280;67284;44.782;10.282;2024-01-15T13:08:05;99369.72;;;8.00
26158;BMP280;67284;44.782;10.282;2024-01-15T13:12:57;99370.56;;;7.99
26158;BMP280;67284;44.782;10.282;2024-01-15T13:17:49;99362.84;;;8.02
26158;BMP280;67284;44.782;10.282;2024-01-15T13:22:41;99349.22;;;8.00
26158;BMP280;67284;44.782;10.282;2024-01-15T13:27:36;99341.47;;;8.03
26158;BMP280;67284;44.782;10.282;2024-01-15T13:32:30;99331.16;;;8.06
26158;BMP280;67284;44.782;10.282;2024-01-15T13:37:22;99329.50;;;8.03
26158;BMP280;67284;44.782;10.282;2024-01-15T13:42:16;99309.00;;;8.05
26158;BMP280;67284;44.782;10.282;2024-01-15T13:47:08;99311.53;;;8.06
26158;BMP280;67284;44.782;10.282;2024-01-15T13:52:00;99304.75;;;8.04
26158;BMP280;67284;44.782;10.282;2024-01-15T13:56:56;99294.44;;;8.07
26158;BMP280;67284;44.782;10.282;2024-01-15T14:01:48;99293.53;;;8.09
26158;BMP280;67284;44.782;10.282;2024-01-15T14:06:39;99277.25;;;8.10
26158;BMP280;67284;44.782;10.282;2024-01-15T14:11:31;99275.53;;;8.14
26158;BMP280;67284;44.782;10.282;2024-01-15T14:16:23;99282.34;;;8.15
26158;BMP280;67284;44.782;10.282;2024-01-15T14:21:16;99292.59;;;8.15
26158;BMP280;67284;44.782;10.282;2024-01-15T14:26:08;99292.59;;;8.15
26158;BMP280;67284;44.782;10.282;2024-01-15T14:31:00;99288.38;;;8.11
26158;BMP280;67284;44.782;10.282;2024-01-15T14:35:53;99268.78;;;8.08
26158;BMP280;67284;44.782;10.282;2024-01-15T14:40:45;99267.91;;;8.09
26158;BMP280;67284;44.782;10.282;2024-01-15T14:45:36;99274.69;;;8.12
26158;BMP280;67284;44.782;10.282;2024-01-15T14:50:28;99280.69;;;8.11
26158;BMP280;67284;44.782;10.282;2024-01-15T14:55:20;99273.84;;;8.13
26158;BMP280;67284;44.782;10.282;2024-01-15T15:00:15;99278.97;;;8.13
26158;BMP280;67284;44.782;10.282;2024-01-15T15:05:09;99276.41;;;8.13
26158;BMP280;67284;44.782;10.282;2024-01-15T15:10:05;99267.00;;;8.13
26158;BMP280;67284;44.782;10.282;2024-01-15T15:14:58;99265.28;;;8.14
26158;BMP280;67284;44.782;10.282;2024-01-15T15:20:00;99274.69;;;8.13
26158;BMP280;67284;44.782;10.282;2024-01-15T15:24:54;99267.88;;;8.12
26158;BMP280;67284;44.782;10.282;2024-01-15T15:29:46;99280.69;;;8.11
26158;BMP280;67284;44.782;10.282;2024-01-15T15:34:39;99274.69;;;8.12
26158;BMP280;67284;44.782;10.282;2024-01-15T15:39:32;99278.13;;;8.11
26158;BMP280;67284;44.782;10.282;2024-01-15T15:44:24;99278.19;;;8.08
26158;BMP280;67284;44.782;10.282;2024-01-15T15:49:16;99279.13;;;8.04
26158;BMP280;67284;44.782;10.282;2024-01-15T15:54:08;99282.59;;;8.01
26158;BMP280;67284;44.782;10.282;2024-01-15T15:59:00;99268.09;;;8.00
26158;BMP280;67284;44.782;10.282;2024-01-15T16:03:53;99272.44;;;7.98
26158;BMP280;67284;44.782;10.282;2024-01-15T16:08:44;99265.56;;;7.99
26158;BMP280;67284;44.782;10.282;2024-01-15T16:13:36;99269.06;;;7.95
26158;BMP280;67284;44.782;10.282;2024-01-15T16:18:28;99271.63;;;7.95
26158;BMP280;67284;44.782;10.282;2024-01-15T16:23:40;99274.25;;;7.92
26158;BMP280;67284;44.782;10.282;2024-01-15T16:28:52;99293.91;;;7.91
26158;BMP280;67284;44.782;10.282;2024-01-15T16:33:45;99299.09;;;7.88
26158;BMP280;67284;44.782;10.282;2024-01-15T16:38:43;99324.72;;;7.88
26158;BMP280;67284;44.782;10.282;2024-01-15T16:43:35;99334.22;;;7.82
26158;BMP280;67284;44.782;10.282;2024-01-15T16:48:26;99347.97;;;7.78
26158;BMP280;67284;44.782;10.282;2024-01-15T16:53:20;99342.84;;;7.78
26158;BMP280;67284;44.782;10.282;2024-01-15T16:58:12;99347.22;;;7.73
26158;BMP280;67284;44.782;10.282;2024-01-15T17:03:06;99360.13;;;7.69
26158;BMP280;67284;44.782;10.282;2024-01-15T17:07:58;99360.94;;;7.69
26158;BMP280;67284;44.782;10.282;2024-01-15T17:12:50;99371.16;;;7.71
26158;BMP280;67284;44.782;10.282;2024-01-15T17:17:42;99388.28;;;7.69
26158;BMP280;67284;44.782;10.282;2024-01-15T17:22:35;99382.41;;;7.62
26158;BMP280;67284;44.782;10.282;2024-01-15T17:27:28;99390.91;;;7.64
26158;BMP280;67284;44.782;10.282;2024-01-15T17:32:20;99404.50;;;7.68
26158;BMP280;67284;44.782;10.282;2024-01-15T17:37:12;99405.41;;;7.64
26158;BMP280;67284;44.782;10.282;2024-01-15T17:42:04;99404.50;;;7.68
26158;BMP280;67284;44.782;10.282;2024-01-15T17:46:56;99410.38;;;7.71
26158;BMP280;67284;44.782;10.282;2024-01-15T17:51:48;99409.53;;;7.72
26158;BMP280;67284;44.782;10.282;2024-01-15T17:56:40;99419.75;;;7.72
26158;BMP280;67284;44.782;10.282;2024-01-15T18:01:32;99439.38;;;7.73
26158;BMP280;67284;44.782;10.282;2024-01-15T18:06:24;99441.28;;;7.62
26158;BMP280;67284;44.782;10.282;2024-01-15T18:11:16;99439.84;;;7.48
26158;BMP280;67284;44.782;10.282;2024-01-15T18:16:11;99464.63;;;7.44
26158;BMP280;67284;44.782;10.282;2024-01-15T18:21:04;99465.56;;;7.39
26158;BMP280;67284;44.782;10.282;2024-01-15T18:25:55;99478.31;;;7.43
26158;BMP280;67284;44.782;10.282;2024-01-15T18:30:47;99467.06;;;7.53
26158;BMP280;67284;44.782;10.282;2024-01-15T18:35:39;99473.78;;;7.59
26158;BMP280;67284;44.782;10.282;2024-01-15T18:40:33;99471.19;;;7.60
26158;BMP280;67284;44.782;10.282;2024-01-15T18:45:27;99488.28;;;7.58
26158;BMP280;67284;44.782;10.282;2024-01-15T18:50:19;99479.13;;;7.45
26158;BMP280;67284;44.782;10.282;2024-01-15T18:55:11;99497.09;;;7.42
26158;BMP280;67284;44.782;10.282;2024-01-15T19:00:05;99508.41;;;7.28
26158;BMP280;67284;44.782;10.282;2024-01-15T19:04:57;99496.50;;;7.25
26158;BMP280;67284;44.782;10.282;2024-01-15T19:09:49;99497.25;;;7.30
26158;BMP280;67284;44.782;10.282;2024-01-15T19:14:41;99509.28;;;7.25
26158;BMP280;67284;44.782;10.282;2024-01-15T19:19:33;99507.75;;;7.16
26158;BMP280;67284;44.782;10.282;2024-01-15T19:24:28;99517.94;;;7.19
26158;BMP280;67284;44.782;10.282;2024-01-15T19:29:20;99523.88;;;7.19
26158;BMP280;67284;44.782;10.282;2024-01-15T19:34:12;99529.00;;;7.19
26158;BMP280;67284;44.782;10.282;2024-01-15T19:39:04;99543.38;;;7.27
26158;BMP280;67284;44.782;10.282;2024-01-15T19:43:56;99546.63;;;7.37
26158;BMP280;67284;44.782;10.282;2024-01-15T19:48:48;99556.91;;;7.35
26158;BMP280;67284;44.782;10.282;2024-01-15T19:53:40;99563.66;;;7.39
26158;BMP280;67284;44.782;10.282;2024-01-15T19:58:32;99574.00;;;7.33
26158;BMP280;67284;44.782;10.282;2024-01-15T20:03:28;99557.72;;;7.37
26158;BMP280;67284;44.782;10.282;2024-01-15T20:08:20;99569.66;;;7.37
26158;BMP280;67284;44.782;10.282;2024-01-15T20:13:12;99564.97;;;7.09
26158;BMP280;67284;44.782;10.282;2024-01-15T20:18:06;99572.72;;;7.01
26158;BMP280;67284;44.782;10.282;2024-01-15T20:22:58;99581.31;;;6.99
26158;BMP280;67284;44.782;10.282;2024-01-15T20:27:50;99582.13;;;6.99
26158;BMP280;67284;44.782;10.282;2024-01-15T20:32:42;99595.75;;;7.00
26158;BMP280;67284;44.782;10.282;2024-01-15T20:37:34;99606.84;;;7.02
26158;BMP280;67284;44.782;10.282;2024-01-15T20:42:26;99618.72;;;7.07
26158;BMP280;67284;44.782;10.282;2024-01-15T20:47:18;99623.75;;;7.12
26158;BMP280;67284;44.782;10.282;2024-01-15T20:52:10;99628.84;;;7.13
26158;BMP280;67284;44.782;10.282;2024-01-15T20:57:02;99630.47;;;7.20
26158;BMP280;67284;44.782;10.282;2024-01-15T21:01:55;99638.97;;;7.21
26158;BMP280;67284;44.782;10.282;2024-01-15T21:06:47;99638.91;;;7.26
26158;BMP280;67284;44.782;10.282;2024-01-15T21:11:39;99647.44;;;7.27
26158;BMP280;67284;44.782;10.282;2024-01-15T21:16:31;99653.41;;;7.24
26158;BMP280;67284;44.782;10.282;2024-01-15T21:21:23;99651.03;;;7.10
26158;BMP280;67284;44.782;10.282;2024-01-15T21:26:14;99650.94;;;7.19
26158;BMP280;67284;44.782;10.282;2024-01-15T21:31:06;99647.56;;;7.18
26158;BMP280;67284;44.782;10.282;2024-01-15T21:35:58;99662.03;;;7.19
26158;BMP280;67284;44.782;10.282;2024-01-15T21:40:50;99657.78;;;7.20
26158;BMP280;67284;44.782;10.282;2024-01-15T21:45:42;99657.94;;;7.05
26158;BMP280;67284;44.782;10.282;2024-01-15T21:50:34;99667.34;;;7.01
26158;BMP280;67284;44.782;10.282;2024-01-15T21:55:26;99668.19;;;7.05
26158;BMP280;67284;44.782;10.282;2024-01-15T22:00:18;99659.56;;;7.12
26158;BMP280;67284;44.782;10.282;2024-01-15T22:05:10;99672.28;;;7.16
26158;BMP280;67284;44.782;10.282;2024-01-15T22:10:03;99681.66;;;7.19
26158;BMP280;67284;44.782;10.282;2024-01-15T22:14:55;99695.44;;;7.06
26158;BMP280;67284;44.782;10.282;2024-01-15T22:19:46;99700.53;;;7.09
26158;BMP280;67284;44.782;10.282;2024-01-15T22:24:38;99702.25;;;7.07
26158;BMP280;67284;44.782;10.282;2024-01-15T22:29:30;99703.97;;;7.06
26158;BMP280;67284;44.782;10.282;2024-01-15T22:34:22;99711.66;;;7.05
26158;BMP280;67284;44.782;10.282;2024-01-15T22:39:15;99721.94;;;7.00
26158;BMP280;67284;44.782;10.282;2024-01-15T22:44:07;99726.16;;;7.01
26158;BMP280;67284;44.782;10.282;2024-01-15T22:48:59;99723.66;;;6.98
26158;BMP280;67284;44.782;10.282;2024-01-15T22:53:51;99715.16;;;6.96
26158;BMP280;67284;44.782;10.282;2024-01-15T22:58:45;99714.31;;;6.93
26158;BMP280;67284;44.782;10.282;2024-01-15T23:03:37;99716.03;;;6.94
26158;BMP280;67284;44.782;10.282;2024-01-15T23:08:29;99717.81;;;6.87
26158;BMP280;67284;44.782;10.282;2024-01-15T23:13:20;99734.91;;;6.84
26158;BMP280;67284;44.782;10.282;2024-01-15T23:18:12;99734.91;;;6.82
26158;BMP280;67284;44.782;10.282;2024-01-15T23:23:04;99746.91;;;6.79
26158;BMP280;67284;44.782;10.282;2024-01-15T23:27:56;99758.75;;;6.83
26158;BMP280;67284;44.782;10.282;2024-01-15T23:32:48;99762.19;;;6.82
26158;BMP280;67284;44.782;10.282;2024-01-15T23:37:40;99769.91;;;6.74
26158;BMP280;67284;44.782;10.282;2024-01-15T23:42:32;99769.09;;;6.74
26158;BMP280;67284;44.782;10.282;2024-01-15T23:47:24;99787.81;;;6.73
26158;BMP280;67284;44.782;10.282;2024-01-15T23:52:16;99787.06;;;6.67
26158;BMP280;67284;44.782;10.282;2024-01-15T23:57:08;99776.84;;;6.64
